Time;durP1;ratioP1;P1;durP2;ratioP2;P2;SDS_P1;SDS_P2;PMS_P1;PMS_P2;Temp;Humidity;BMP_temperature;BMP_pressure;BME280_temperature;BME280_humidity;BME280_pressure;Samples;Min_cycle;Max_cycle;Signal;HPM_P1;HPM_P2
2022/03/11 00:00:33;;;;;;;13.88;11.20;;;11.10;1.00;;;;;;5034125;28;20056;-92
2022/03/11 00:02:58;;;;;;;13.05;10.70;;;11.10;1.00;;;;;;5017558;28;20409;-93
2022/03/11 00:05:25;;;;;;;16.17;11.25;;;11.10;1.00;;;;;;5017973;28;20026;-92
2022/03/11 00:07:51;;;;;;;11.80;10.23;;;11.00;1.00;;;;;;5031411;28;20079;-93
2022/03/11 00:10:17;;;;;;;13.10;10.43;;;11.10;1.00;;;;;;5034392;28;20456;-93
2022/03/11 00:12:43;;;;;;;13.48;10.75;;;11.10;1.00;;;;;;5017380;28;20508;-92
2022/03/11 00:15:09;;;;;;;14.45;10.63;;;11.10;1.00;;;;;;5034022;28;20025;-92
2022/03/11 00:17:35;;;;;;;15.73;11.38;;;11.00;1.00;;;;;;5034449;28;20104;-93
2022/03/11 00:20:02;;;;;;;13.55;10.95;;;11.00;1.00;;;;;;5017325;28;20129;-92
2022/03/11 00:22:28;;;;;;;12.75;10.27;;;11.00;1.00;;;;;;5017112;28;20073;-92
2022/03/11 00:24:54;;;;;;;13.02;10.35;;;10.90;1.00;;;;;;5009996;28;20076;-93
2022/03/11 00:27:19;;;;;;;13.23;8.93;;;11.10;1.00;;;;;;5013516;28;20478;-93
2022/03/11 00:29:45;;;;;;;11.63;10.18;;;10.90;1.00;;;;;;5012969;28;20041;-92
2022/03/11 00:32:11;;;;;;;11.90;9.95;;;10.90;1.00;;;;;;5013137;28;20029;-93
2022/03/11 00:34:36;;;;;;;11.85;9.70;;;10.90;1.00;;;;;;5013915;28;20033;-92
2022/03/11 00:37:02;;;;;;;10.90;9.32;;;10.90;1.00;;;;;;5013521;28;20030;-93
2022/03/11 00:39:28;;;;;;;10.95;8.50;;;10.90;1.00;;;;;;5013375;28;20022;-92
2022/03/11 00:41:55;;;;;;;10.25;8.65;;;11.10;1.00;;;;;;5012608;28;20026;-93
2022/03/11 00:44:21;;;;;;;10.27;8.93;;;11.20;1.00;;;;;;5013850;28;20363;-92
2022/03/11 00:46:46;;;;;;;10.57;8.57;;;11.10;1.00;;;;;;5013718;28;20040;-92
2022/03/11 00:49:12;;;;;;;9.40;8.45;;;11.10;1.00;;;;;;5014282;28;20052;-92
2022/03/11 00:51:38;;;;;;;9.95;8.52;;;11.10;1.00;;;;;;5013624;28;20053;-93
2022/03/11 00:54:04;;;;;;;10.07;8.82;;;11.10;1.00;;;;;;5013540;28;20033;-93
2022/03/11 00:56:30;;;;;;;11.50;8.80;;;11.10;1.00;;;;;;5013441;28;20038;-93
2022/03/11 00:58:57;;;;;;;9.35;8.32;;;11.10;1.00;;;;;;4998232;28;20517;-93
2022/03/11 01:01:23;;;;;;;10.82;8.75;;;11.10;1.00;;;;;;5014123;28;20030;-92
2022/03/11 01:03:49;;;;;;;12.63;8.43;;;11.10;1.00;;;;;;5013666;28;20032;-93
2022/03/11 01:06:15;;;;;;;10.60;8.80;;;11.00;1.00;;;;;;5012128;28;20084;-93
2022/03/11 01:08:41;;;;;;;10.30;8.23;;;11.00;1.00;;;;;;5013890;28;20022;-93
2022/03/11 01:11:08;;;;;;;10.90;8.50;;;11.10;1.00;;;;;;5012677;28;20571;-92
2022/03/11 01:13:34;;;;;;;9.25;8.23;;;11.00;1.00;;;;;;5014337;28;20025;-92
2022/03/11 01:16:00;;;;;;;10.95;8.88;;;10.90;1.00;;;;;;5012519;28;20030;-92
2022/03/11 01:18:26;;;;;;;11.77;8.30;;;10.80;1.00;;;;;;5012607;28;19998;-93
2022/03/11 01:20:52;;;;;;;11.95;8.48;;;10.80;1.00;;;;;;5013226;28;20041;-92
2022/03/11 01:23:18;;;;;;;9.40;7.78;;;10.80;1.00;;;;;;5028387;28;20042;-92
2022/03/11 01:25:44;;;;;;;10.50;7.78;;;10.80;1.00;;;;;;5014646;28;20485;-92
2022/03/11 01:28:10;;;;;;;9.75;7.88;;;10.80;1.00;;;;;;5033599;28;20032;-92
2022/03/11 01:30:35;;;;;;;10.23;8.27;;;10.90;1.00;;;;;;5032718;28;20037;-92
2022/03/11 01:33:01;;;;;;;10.35;8.75;;;10.90;1.00;;;;;;5018343;28;20485;-92
2022/03/11 01:35:27;;;;;;;10.95;8.68;;;10.80;1.00;;;;;;5016819;28;20026;-92
2022/03/11 01:37:52;;;;;;;9.68;8.23;;;10.90;1.00;;;;;;5015415;28;20040;-92
2022/03/11 01:40:18;;;;;;;9.90;8.13;;;11.00;1.00;;;;;;5033332;28;20059;-92
2022/03/11 01:42:43;;;;;;;10.63;8.40;;;10.90;1.00;;;;;;5015905;28;20022;-92
2022/03/11 01:45:09;;;;;;;10.65;8.40;;;10.90;1.00;;;;;;5018196;28;20397;-93
2022/03/11 01:47:35;;;;;;;9.48;7.97;;;11.00;1.00;;;;;;5032788;28;20024;-93
2022/03/11 01:50:01;;;;;;;10.40;8.90;;;10.90;1.00;;;;;;5032468;28;20083;-93
2022/03/11 01:52:26;;;;;;;8.82;7.93;;;10.90;1.00;;;;;;5033477;28;20022;-92
2022/03/11 01:54:54;;;;;;;10.27;8.70;;;10.80;1.00;;;;;;5032242;28;20029;-92
2022/03/11 01:57:20;;;;;;;10.18;8.30;;;10.80;1.00;;;;;;5023033;28;20456;-93
2022/03/11 01:59:45;;;;;;;8.75;7.75;;;10.80;1.00;;;;;;5017626;28;20120;-93
2022/03/11 02:02:11;;;;;;;10.30;8.80;;;10.80;1.00;;;;;;5016546;28;20048;-92
2022/03/11 02:04:36;;;;;;;11.57;9.30;;;10.70;1.00;;;;;;5015166;28;20113;-92
2022/03/11 02:07:04;;;;;;;9.90;8.73;;;10.60;1.00;;;;;;5016972;28;20136;-92
2022/03/11 02:09:30;;;;;;;11.75;9.20;;;10.60;1.00;;;;;;5015982;28;20041;-92
2022/03/11 02:11:56;;;;;;;10.07;8.95;;;10.60;1.00;;;;;;5018050;28;20057;-92
2022/03/11 02:14:21;;;;;;;12.48;8.80;;;10.70;1.00;;;;;;5018116;28;20057;-93
2022/03/11 02:16:47;;;;;;;11.60;9.50;;;10.60;1.00;;;;;;5015280;28;20044;-93
2022/03/11 02:19:13;;;;;;;11.45;9.40;;;10.70;1.00;;;;;;5017489;28;20039;-92
2022/03/11 02:21:43;;;;;;;10.80;8.40;;;10.70;1.00;;;;;;5017677;28;20032;-92
2022/03/11 02:24:10;;;;;;;9.88;8.77;;;10.80;1.00;;;;;;5032259;28;20034;-92
2022/03/11 02:26:36;;;;;;;9.65;8.18;;;10.80;1.00;;;;;;5018636;28;20040;-92
2022/03/11 02:29:03;;;;;;;9.65;8.10;;;10.70;1.00;;;;;;5032221;28;20080;-92
2022/03/11 02:31:30;;;;;;;9.38;8.38;;;10.60;1.00;;;;;;5036232;28;20030;-92
2022/03/11 02:33:57;;;;;;;9.30;7.80;;;10.60;1.00;;;;;;5021365;28;20155;-92
2022/03/11 02:36:23;;;;;;;8.55;7.65;;;10.90;1.00;;;;;;5022042;28;20057;-94
2022/03/11 02:38:50;;;;;;;9.20;7.75;;;10.70;1.00;;;;;;5035876;28;20383;-93
2022/03/11 02:41:15;;;;;;;10.90;7.93;;;10.70;1.00;;;;;;5020043;28;20116;-92
2022/03/11 02:43:42;;;;;;;9.02;7.55;;;10.80;1.00;;;;;;5018995;28;20507;-94
2022/03/11 02:46:09;;;;;;;10.00;7.30;;;10.70;1.00;;;;;;5033879;28;20040;-93
2022/03/11 02:48:35;;;;;;;10.07;6.88;;;10.70;1.00;;;;;;5020060;28;20030;-92
2022/03/11 02:51:01;;;;;;;10.90;7.63;;;10.80;1.00;;;;;;5019390;28;20095;-92
2022/03/11 02:53:26;;;;;;;7.85;7.05;;;10.70;1.00;;;;;;5019675;28;20018;-93
2022/03/11 02:55:52;;;;;;;8.00;7.07;;;10.80;1.00;;;;;;5018219;28;20021;-92
2022/03/11 02:58:19;;;;;;;9.60;7.38;;;10.90;1.00;;;;;;5035831;28;20033;-93
2022/03/11 03:00:44;;;;;;;9.00;7.30;;;10.90;1.00;;;;;;5035931;28;20021;-92
2022/03/11 03:03:10;;;;;;;7.38;6.68;;;10.70;1.00;;;;;;5005380;28;20548;-92
2022/03/11 03:05:36;;;;;;;8.90;7.32;;;10.80;1.00;;;;;;5021490;28;20609;-93
2022/03/11 03:08:02;;;;;;;8.90;6.60;;;10.90;1.00;;;;;;5037082;28;20041;-93
2022/03/11 03:10:28;;;;;;;8.90;7.10;;;10.80;1.00;;;;;;5019251;28;20033;-92
2022/03/11 03:12:54;;;;;;;7.70;6.72;;;10.80;1.00;;;;;;5035895;28;20033;-93
2022/03/11 03:15:19;;;;;;;10.68;7.15;;;10.80;1.00;;;;;;5035918;28;20444;-92
2022/03/11 03:17:45;;;;;;;10.07;7.60;;;10.70;1.00;;;;;;5021877;28;20105;-93
2022/03/11 03:20:11;;;;;;;8.40;6.57;;;10.60;1.00;;;;;;5035086;28;20401;-93
2022/03/11 03:22:37;;;;;;;8.02;7.22;;;10.60;1.00;;;;;;5035200;28;20041;-92
2022/03/11 03:25:04;;;;;;;10.30;7.68;;;10.60;1.00;;;;;;5019067;28;20124;-92
2022/03/11 03:27:30;;;;;;;9.57;7.25;;;10.70;1.00;;;;;;5035241;28;20028;-92
2022/03/11 03:29:55;;;;;;;8.40;7.20;;;10.70;1.00;;;;;;5034635;28;20033;-93
2022/03/11 03:32:21;;;;;;;10.77;7.55;;;10.90;1.00;;;;;;5034834;28;20021;-92
2022/03/11 03:34:47;;;;;;;7.68;6.88;;;10.80;1.00;;;;;;5017884;28;20045;-92
2022/03/11 03:37:13;;;;;;;9.27;7.03;;;10.70;1.00;;;;;;5036039;28;20037;-93
2022/03/11 03:39:40;;;;;;;8.48;7.07;;;10.70;1.00;;;;;;5034600;28;20017;-92
2022/03/11 03:42:06;;;;;;;9.25;7.30;;;10.70;1.00;;;;;;5033299;28;20025;-92
2022/03/11 03:44:33;;;;;;;9.15;7.35;;;10.70;1.00;;;;;;5034758;28;20026;-92
2022/03/11 03:46:58;;;;;;;7.55;6.75;;;10.80;1.00;;;;;;5034763;28;20029;-93
2022/03/11 03:49:25;;;;;;;10.65;7.78;;;10.70;1.00;;;;;;5034935;28;20478;-92
2022/03/11 03:51:52;;;;;;;10.63;7.75;;;10.70;1.00;;;;;;5034602;28;20026;-93
2022/03/11 03:54:18;;;;;;;8.68;7.57;;;10.80;1.00;;;;;;5035449;28;20030;-92
2022/03/11 03:56:45;;;;;;;9.90;8.50;;;10.70;1.00;;;;;;5018386;28;20026;-93
2022/03/11 03:59:12;;;;;;;11.45;8.25;;;10.70;1.00;;;;;;5019005;28;20428;-92
2022/03/11 04:01:39;;;;;;;9.80;8.02;;;10.70;1.00;;;;;;5034494;28;20032;-92
2022/03/11 04:04:06;;;;;;;10.55;8.85;;;10.60;1.00;;;;;;5034283;28;20022;-93
2022/03/11 04:06:33;;;;;;;10.57;9.48;;;10.60;1.00;;;;;;5020057;28;20025;-92
2022/03/11 04:09:00;;;;;;;11.52;9.13;;;10.70;1.00;;;;;;5033824;28;20030;-93
2022/03/11 04:11:29;;;;;;;9.23;8.20;;;10.60;1.00;;;;;;5020002;28;20025;-92
2022/03/11 04:13:56;;;;;;;11.50;8.55;;;10.70;1.00;;;;;;5017849;28;20108;-90
2022/03/11 04:16:22;;;;;;;12.43;9.27;;;10.60;1.00;;;;;;5017248;28;20025;-92
2022/03/11 04:18:49;;;;;;;10.20;8.50;;;10.60;1.00;;;;;;5016956;28;20021;-93
2022/03/11 04:21:15;;;;;;;11.13;8.80;;;10.60;1.00;;;;;;5033717;28;20029;-93
2022/03/11 04:23:42;;;;;;;10.05;8.95;;;10.50;1.00;;;;;;5033753;28;20057;-92
2022/03/11 04:26:08;;;;;;;11.85;9.02;;;10.50;1.00;;;;;;5034233;28;20025;-92
2022/03/11 04:28:33;;;;;;;12.02;8.80;;;10.50;1.00;;;;;;5016564;28;20128;-92
2022/03/11 04:30:59;;;;;;;10.50;9.23;;;10.50;1.00;;;;;;5015890;28;20033;-92
2022/03/11 04:33:26;;;;;;;9.63;8.60;;;10.50;1.00;;;;;;5032952;28;20029;-92
2022/03/11 04:35:52;;;;;;;12.15;9.45;;;10.40;1.00;;;;;;5033479;28;20026;-93
2022/03/11 04:38:17;;;;;;;11.48;9.10;;;10.40;1.00;;;;;;5020546;28;20030;-93
2022/03/11 04:40:43;;;;;;;12.52;9.00;;;10.40;1.00;;;;;;5033554;28;20096;-93
2022/03/11 04:43:08;;;;;;;9.75;8.75;;;10.40;1.00;;;;;;5034472;28;20028;-92
2022/03/11 04:45:34;;;;;;;9.30;7.72;;;10.40;1.00;;;;;;5017218;28;20033;-93
2022/03/11 04:48:00;;;;;;;9.95;8.50;;;10.40;1.00;;;;;;5033762;28;20021;-92
2022/03/11 04:50:25;;;;;;;10.93;8.25;;;10.40;1.00;;;;;;5033987;28;20064;-93
2022/03/11 04:52:52;;;;;;;9.77;8.35;;;10.40;1.00;;;;;;5016199;28;20033;-92
2022/03/11 04:55:18;;;;;;;11.15;8.63;;;10.30;1.00;;;;;;5033848;28;20103;-93
2022/03/11 04:57:44;;;;;;;9.88;7.93;;;10.40;1.00;;;;;;5033266;28;20440;-93
2022/03/11 05:00:11;;;;;;;8.55;7.65;;;10.40;1.00;;;;;;5018383;28;20037;-93
2022/03/11 05:02:37;;;;;;;10.18;8.18;;;10.50;1.00;;;;;;5017322;28;20025;-93
2022/03/11 05:05:07;;;;;;;8.57;7.35;;;10.40;1.00;;;;;;5033514;28;20056;-93
2022/03/11 05:07:35;;;;;;;10.45;8.07;;;10.40;1.00;;;;;;5033173;28;20029;-92
2022/03/11 05:10:02;;;;;;;10.13;7.50;;;10.40;1.00;;;;;;5018059;28;20038;-93
2022/03/11 05:12:27;;;;;;;11.18;8.00;;;10.40;1.00;;;;;;5016824;28;20493;-93
2022/03/11 05:14:53;;;;;;;9.55;8.00;;;10.50;1.00;;;;;;5018427;28;20040;-92
2022/03/11 05:17:19;;;;;;;9.50;7.55;;;10.40;1.00;;;;;;5017706;28;20033;-93
2022/03/11 05:19:45;;;;;;;9.43;7.80;;;10.50;1.00;;;;;;5015724;28;20037;-92
2022/03/11 05:22:11;;;;;;;9.07;7.93;;;10.40;1.00;;;;;;5033734;28;20056;-92
2022/03/11 05:24:38;;;;;;;12.20;8.05;;;10.30;1.00;;;;;;5017479;28;20055;-93
2022/03/11 05:27:05;;;;;;;8.88;7.70;;;10.30;1.00;;;;;;5032776;28;20032;-94
2022/03/11 05:29:35;;;;;;;9.95;8.48;;;10.30;1.00;;;;;;5016631;28;20048;-92
2022/03/11 05:32:01;;;;;;;9.80;7.88;;;10.30;1.00;;;;;;5034383;28;20030;-92
2022/03/11 05:34:27;;;;;;;8.88;7.22;;;10.30;1.00;;;;;;5034385;28;20097;-92
2022/03/11 05:36:53;;;;;;;10.02;8.10;;;10.30;1.00;;;;;;5016879;28;20421;-93
2022/03/11 05:39:19;;;;;;;8.52;6.88;;;10.40;1.00;;;;;;5033501;28;20130;-93
2022/03/11 05:41:46;;;;;;;10.38;8.80;;;10.40;1.00;;;;;;5025865;28;20022;-93
2022/03/11 05:44:12;;;;;;;8.27;7.10;;;10.40;1.00;;;;;;5034357;28;20421;-92
2022/03/11 05:46:38;;;;;;;7.20;6.50;;;10.40;1.00;;;;;;5033577;28;20027;-93
2022/03/11 05:49:03;;;;;;;8.20;6.00;;;10.50;1.00;;;;;;5034451;28;20452;-93
2022/03/11 05:51:29;;;;;;;7.85;5.90;;;10.50;1.00;;;;;;5034253;28;20052;-93
2022/03/11 05:53:55;;;;;;;7.18;6.30;;;10.50;1.00;;;;;;5025537;28;20064;-93
2022/03/11 05:56:20;;;;;;;7.13;5.95;;;10.60;1.00;;;;;;5033741;28;20029;-93
2022/03/11 05:58:46;;;;;;;8.40;6.60;;;10.50;1.00;;;;;;5016471;28;20029;-93
2022/03/11 06:01:12;;;;;;;7.65;6.45;;;10.50;1.00;;;;;;5033938;28;20512;-93
2022/03/11 06:03:38;;;;;;;7.88;6.30;;;10.50;1.00;;;;;;5016884;28;20030;-93
2022/03/11 06:06:03;;;;;;;7.90;6.85;;;10.50;1.00;;;;;;5011308;28;20026;-92
2022/03/11 06:08:29;;;;;;;7.38;6.43;;;10.40;1.00;;;;;;5020291;28;20025;-94
2022/03/11 06:10:55;;;;;;;9.45;7.00;;;10.40;1.00;;;;;;5037584;28;20045;-93
2022/03/11 06:13:20;;;;;;;8.90;6.13;;;10.50;1.00;;;;;;5037430;28;20025;-91
2022/03/11 06:15:46;;;;;;;9.07;6.72;;;10.40;1.00;;;;;;5037083;28;20029;-92
2022/03/11 06:18:15;;;;;;;8.60;6.72;;;10.40;1.00;;;;;;5037527;28;20079;-93
2022/03/11 06:20:41;;;;;;;10.27;7.50;;;10.30;1.00;;;;;;5037781;28;20092;-93
2022/03/11 06:23:07;;;;;;;8.77;6.60;;;10.30;1.00;;;;;;5036744;28;20046;-92
2022/03/11 06:25:33;;;;;;;8.13;6.97;;;10.20;1.00;;;;;;5036402;28;20048;-92
2022/03/11 06:27:58;;;;;;;8.38;7.22;;;10.20;1.00;;;;;;5036722;28;20018;-92
2022/03/11 06:30:24;;;;;;;9.57;7.60;;;10.30;1.00;;;;;;5037066;28;20037;-92
2022/03/11 06:32:51;;;;;;;9.25;6.80;;;10.30;1.00;;;;;;5023400;28;21983;-92
2022/03/11 06:35:18;;;;;;;11.32;6.68;;;10.30;1.00;;;;;;5037197;28;20398;-93
2022/03/11 06:37:50;;;;;;;8.52;6.47;;;10.20;1.00;;;;;;5020130;28;20053;-92
2022/03/11 06:40:17;;;;;;;11.27;7.50;;;10.20;1.00;;;;;;5019670;28;20033;-93
2022/03/11 06:42:44;;;;;;;8.65;7.03;;;10.30;1.00;;;;;;5037079;28;20394;-92
2022/03/11 06:45:11;;;;;;;8.60;7.47;;;10.20;1.00;;;;;;5036370;28;20038;-93
2022/03/11 06:47:38;;;;;;;9.48;7.85;;;10.10;1.00;;;;;;5030907;28;20489;-93
2022/03/11 06:50:05;;;;;;;10.10;7.63;;;10.20;1.00;;;;;;5014710;28;20080;-93
2022/03/11 06:52:31;;;;;;;9.50;8.07;;;10.20;1.00;;;;;;4999993;28;20108;-93
2022/03/11 06:54:56;;;;;;;9.95;7.68;;;10.20;1.00;;;;;;5036895;28;20032;-92
2022/03/11 06:57:22;;;;;;;9.68;7.88;;;10.20;1.00;;;;;;5019747;28;20478;-93
2022/03/11 06:59:49;;;;;;;11.27;7.97;;;10.20;1.00;;;;;;5025475;28;20022;-93
2022/03/11 07:02:15;;;;;;;12.57;8.45;;;10.20;1.00;;;;;;5036638;28;20060;-93
2022/03/11 07:04:41;;;;;;;10.52;7.80;;;10.20;1.00;;;;;;5035856;28;20033;-93
2022/03/11 07:07:08;;;;;;;10.65;7.93;;;10.20;1.00;;;;;;5035942;28;20025;-93
2022/03/11 07:09:34;;;;;;;12.02;7.90;;;10.20;1.00;;;;;;5021285;28;20045;-87
2022/03/11 07:12:03;;;;;;;8.95;7.95;;;10.20;1.00;;;;;;5032724;28;20022;-85
2022/03/11 07:14:30;;;;;;;10.27;7.97;;;10.30;1.00;;;;;;5033308;28;20029;-84
2022/03/11 07:16:57;;;;;;;9.07;7.60;;;10.40;1.00;;;;;;5032896;28;20030;-84
2022/03/11 07:19:28;;;;;;;10.02;7.90;;;10.50;1.00;;;;;;5015584;28;20033;-85
2022/03/11 07:21:59;;;;;;;9.70;8.45;;;10.50;1.00;;;;;;5017535;28;20049;-84
2022/03/11 07:24:25;;;;;;;9.05;8.00;;;10.40;1.00;;;;;;5032591;28;20068;-84
2022/03/11 07:26:51;;;;;;;10.15;7.93;;;10.50;1.00;;;;;;5032803;28;20079;-84
2022/03/11 07:29:17;;;;;;;9.10;7.50;;;10.50;1.00;;;;;;5032592;28;20017;-83
2022/03/11 07:31:43;;;;;;;9.23;8.13;;;10.50;1.00;;;;;;5033743;28;20030;-83
2022/03/11 07:34:08;;;;;;;10.38;7.57;;;10.60;1.00;;;;;;5030980;28;20465;-83
2022/03/11 07:36:34;;;;;;;10.90;8.32;;;10.80;1.00;;;;;;5032276;28;20030;-83
2022/03/11 07:39:04;;;;;;;10.95;8.32;;;10.60;1.00;;;;;;5032340;28;20025;-83
2022/03/11 07:41:30;;;;;;;10.43;7.55;;;10.70;1.00;;;;;;5032867;28;20441;-83
2022/03/11 07:43:56;;;;;;;11.02;8.30;;;10.70;1.00;;;;;;5016563;28;20013;-84
2022/03/11 07:46:23;;;;;;;9.75;7.55;;;10.60;1.00;;;;;;5013539;28;20026;-89
2022/03/11 07:48:49;;;;;;;8.90;7.97;;;10.80;1.00;;;;;;5032628;28;20509;-88
2022/03/11 07:51:16;;;;;;;9.70;8.10;;;10.90;1.00;;;;;;5026156;28;20393;-88
2022/03/11 07:53:42;;;;;;;12.00;7.85;;;11.00;1.00;;;;;;5033636;28;20053;-88
2022/03/11 07:56:10;;;;;;;9.07;8.15;;;11.10;1.00;;;;;;5033528;28;20025;-89
2022/03/11 07:58:36;;;;;;;8.70;7.72;;;11.20;1.00;;;;;;5032119;28;20124;-83
2022/03/11 08:01:04;;;;;;;9.85;7.53;;;11.30;1.00;;;;;;5033228;28;20052;-83
2022/03/11 08:03:30;;;;;;;10.07;7.63;;;11.30;1.00;;;;;;5032099;28;20424;-83
2022/03/11 08:05:56;;;;;;;11.98;8.32;;;11.40;1.00;;;;;;5032225;28;20124;-83
2022/03/11 08:08:21;;;;;;;9.43;8.40;;;11.60;1.00;;;;;;5015808;28;20026;-83
2022/03/11 08:10:48;;;;;;;10.55;8.10;;;11.70;1.00;;;;;;5031481;28;20040;-83
2022/03/11 08:13:14;;;;;;;10.75;7.97;;;11.80;1.00;;;;;;5032044;28;20071;-83
2022/03/11 08:15:39;;;;;;;9.40;7.75;;;11.80;1.00;;;;;;5031640;28;20108;-83
2022/03/11 08:18:05;;;;;;;12.05;7.95;;;11.80;1.00;;;;;;5032247;28;20027;-83
2022/03/11 08:20:31;;;;;;;8.50;7.50;;;11.80;1.00;;;;;;5031882;28;20038;-83
2022/03/11 08:22:56;;;;;;;9.57;7.50;;;11.70;1.00;;;;;;5031677;28;20041;-83
2022/03/11 08:25:26;;;;;;;8.93;7.78;;;11.70;1.00;;;;;;5031825;28;20034;-82
2022/03/11 08:27:53;;;;;;;8.55;7.50;;;11.70;1.00;;;;;;5030771;28;20030;-83
2022/03/11 08:30:19;;;;;;;10.75;7.75;;;11.90;1.00;;;;;;5028604;28;20037;-83
2022/03/11 08:32:46;;;;;;;8.27;7.13;;;11.80;1.00;;;;;;5031563;28;20026;-83
2022/03/11 08:35:11;;;;;;;9.13;7.32;;;11.90;1.00;;;;;;5032203;28;20025;-83
2022/03/11 08:37:37;;;;;;;8.95;7.43;;;11.90;1.00;;;;;;5032163;28;20043;-83
2022/03/11 08:40:07;;;;;;;8.57;7.57;;;12.00;1.00;;;;;;5031675;28;20033;-83
2022/03/11 08:42:34;;;;;;;10.10;6.75;;;11.90;1.00;;;;;;5031379;28;20108;-83
2022/03/11 08:45:00;;;;;;;8.77;7.68;;;11.90;1.00;;;;;;5031244;28;20029;-83
2022/03/11 08:47:27;;;;;;;9.82;7.88;;;11.90;1.00;;;;;;5015463;28;20033;-83
2022/03/11 08:49:53;;;;;;;8.90;7.70;;;12.00;1.00;;;;;;5030417;28;20037;-85
2022/03/11 08:52:19;;;;;;;9.02;7.20;;;12.10;1.00;;;;;;5031809;28;20039;-83
2022/03/11 08:54:46;;;;;;;8.73;7.72;;;12.30;1.00;;;;;;5030936;28;20025;-83
2022/03/11 08:57:11;;;;;;;12.02;7.50;;;12.40;1.00;;;;;;5031344;28;20052;-84
2022/03/11 08:59:37;;;;;;;10.35;7.78;;;12.70;1.00;;;;;;5030984;28;20034;-83
2022/03/11 09:02:06;;;;;;;9.05;8.15;;;13.40;1.00;;;;;;5031054;28;20042;-84
2022/03/11 09:04:33;;;;;;;10.95;7.65;;;14.20;1.00;;;;;;5030726;28;20164;-84
2022/03/11 09:06:59;;;;;;;8.68;7.85;;;14.60;1.00;;;;;;5030765;28;20025;-84
2022/03/11 09:09:24;;;;;;;9.55;7.03;;;14.20;1.00;;;;;;5030490;28;20067;-84
2022/03/11 09:11:50;;;;;;;10.65;7.47;;;14.80;1.00;;;;;;5031368;28;20787;-83
2022/03/11 09:14:16;;;;;;;7.63;6.85;;;15.20;1.00;;;;;;5030889;28;20030;-84
2022/03/11 09:16:42;;;;;;;10.57;8.00;;;15.20;1.00;;;;;;5031393;28;20021;-84
2022/03/11 09:19:08;;;;;;;9.93;8.25;;;14.70;1.00;;;;;;5031113;28;20033;-83
2022/03/11 09:21:34;;;;;;;8.75;7.35;;;14.80;1.00;;;;;;5030490;28;20530;-83
2022/03/11 09:24:00;;;;;;;10.45;8.77;;;15.10;1.00;;;;;;5030446;28;20108;-84
2022/03/11 09:26:25;;;;;;;8.15;7.35;;;14.90;1.00;;;;;;5030802;28;20034;-84
2022/03/11 09:28:51;;;;;;;8.60;7.60;;;15.00;1.00;;;;;;5014574;28;20029;-83
2022/03/11 09:31:17;;;;;;;8.75;7.72;;;15.20;1.00;;;;;;5031690;28;20044;-83
2022/03/11 09:33:42;;;;;;;8.77;7.95;;;15.70;1.00;;;;;;5031457;28;20079;-83
2022/03/11 09:36:09;;;;;;;8.75;7.90;;;16.20;1.00;;;;;;5030776;28;20033;-84
2022/03/11 09:38:37;;;;;;;8.35;7.53;;;16.60;1.00;;;;;;5030463;28;20174;-83
2022/03/11 09:41:04;;;;;;;8.10;7.30;;;16.40;1.00;;;;;;5033414;28;20034;-84
2022/03/11 09:43:30;;;;;;;8.18;7.40;;;17.10;1.00;;;;;;5036243;28;20017;-84
2022/03/11 09:45:57;;;;;;;10.93;7.22;;;16.60;1.00;;;;;;5034434;28;20030;-84
2022/03/11 09:48:23;;;;;;;10.02;7.35;;;16.30;1.00;;;;;;5034409;28;20025;-84
2022/03/11 09:50:49;;;;;;;10.05;7.93;;;15.70;1.00;;;;;;5034428;28;20508;-84
2022/03/11 09:53:15;;;;;;;10.40;7.43;;;15.30;1.00;;;;;;5033103;28;20048;-84
2022/03/11 09:55:42;;;;;;;8.68;7.88;;;15.10;1.00;;;;;;5029559;28;20033;-84
2022/03/11 09:58:08;;;;;;;8.27;7.47;;;15.40;1.00;;;;;;5034796;28;20381;-84
2022/03/11 10:00:34;;;;;;;7.90;7.10;;;15.60;1.00;;;;;;5034558;28;20083;-83
2022/03/11 10:03:00;;;;;;;7.90;7.10;;;15.60;1.00;;;;;;5018264;28;20381;-84
2022/03/11 10:05:45;;;;;;;9.63;7.35;;;15.80;1.00;;;;;;5034084;28;20464;-83
2022/03/11 10:08:10;;;;;;;8.60;7.10;;;15.10;1.00;;;;;;5020010;28;20393;-83
2022/03/11 10:10:36;;;;;;;8.73;7.82;;;15.00;1.00;;;;;;5027188;28;20030;-84
2022/03/11 10:13:02;;;;;;;9.52;7.78;;;14.40;1.00;;;;;;5035014;28;20029;-84
2022/03/11 10:15:29;;;;;;;8.48;7.68;;;14.40;1.00;;;;;;5034172;28;20095;-83
2022/03/11 10:17:56;;;;;;;8.13;7.32;;;14.30;1.00;;;;;;5033738;28;20022;-84
2022/03/11 10:20:22;;;;;;;8.30;7.50;;;14.10;1.00;;;;;;5034413;28;20021;-84
2022/03/11 10:22:48;;;;;;;8.45;7.55;;;13.80;1.00;;;;;;5033469;28;20410;-84
2022/03/11 10:25:27;;;;;;;8.57;7.68;;;13.80;1.00;;;;;;5031375;28;20469;-83
2022/03/11 10:28:03;;;;;;;8.40;7.00;;;13.90;1.00;;;;;;5033449;28;20631;-83
2022/03/11 10:30:31;;;;;;;8.43;7.22;;;13.90;1.00;;;;;;5033530;28;20029;-83
2022/03/11 10:32:59;;;;;;;8.60;7.72;;;13.90;1.00;;;;;;5033889;28;20535;-83
2022/03/11 10:35:38;;;;;;;8.88;7.32;;;13.90;1.00;;;;;;5033306;28;20037;-83
2022/03/11 10:38:15;;;;;;;8.73;7.00;;;13.70;1.00;;;;;;5019589;28;20026;-84
2022/03/11 10:40:52;;;;;;;7.78;6.85;;;14.00;1.00;;;;;;5033878;28;20029;-83
2022/03/11 10:43:25;;;;;;;9.25;7.20;;;14.20;1.00;;;;;;5033943;28;20032;-83
2022/03/11 10:45:56;;;;;;;8.90;7.10;;;14.00;1.00;;;;;;5012746;28;20117;-82
2022/03/11 10:48:46;;;;;;;9.57;6.95;;;13.80;1.00;;;;;;5031833;28;20022;-83
2022/03/11 10:51:27;;;;;;;8.15;7.35;;;13.70;1.00;;;;;;5032823;28;20037;-84
2022/03/11 10:53:55;;;;;;;8.45;7.30;;;13.70;1.00;;;;;;5033222;28;20029;-85
2022/03/11 10:56:29;;;;;;;7.80;7.00;;;13.70;1.00;;;;;;5020743;28;20036;-85
2022/03/11 10:58:58;;;;;;;8.90;6.78;;;13.70;1.00;;;;;;5033331;28;20026;-84
2022/03/11 11:01:41;;;;;;;9.43;7.80;;;13.70;1.00;;;;;;5031949;28;20390;-84
2022/03/11 11:04:09;;;;;;;9.32;7.68;;;13.90;1.00;;;;;;5032831;28;20060;-84
2022/03/11 11:06:36;;;;;;;7.63;6.85;;;14.00;1.00;;;;;;5033847;28;20014;-85
2022/03/11 11:09:03;;;;;;;8.30;7.40;;;13.80;1.00;;;;;;5026775;28;20038;-89
2022/03/11 11:11:30;;;;;;;7.75;6.78;;;13.90;1.00;;;;;;5027500;28;20040;-89
2022/03/11 11:13:58;;;;;;;8.00;6.97;;;14.10;1.00;;;;;;5032659;28;20515;-87
2022/03/11 11:16:28;;;;;;;8.55;6.95;;;14.10;1.00;;;;;;5034097;28;20034;-89
2022/03/11 11:18:57;;;;;;;8.07;7.28;;;14.30;1.00;;;;;;5031819;28;20033;-88
2022/03/11 11:21:24;;;;;;;8.40;7.22;;;14.30;1.00;;;;;;5017595;28;20471;-87
2022/03/11 11:23:55;;;;;;;10.10;7.68;;;14.10;1.00;;;;;;5026653;28;20045;-84
2022/03/11 11:26:25;;;;;;;9.05;7.80;;;14.00;1.00;;;;;;5031916;28;20033;-88
2022/03/11 11:29:00;;;;;;;8.32;7.25;;;14.10;1.00;;;;;;5032411;28;20489;-88
2022/03/11 11:31:27;;;;;;;11.00;8.13;;;14.30;1.00;;;;;;5028675;28;20033;-88
2022/03/11 11:33:52;;;;;;;8.82;7.65;;;14.40;1.00;;;;;;5016813;28;20033;-86
2022/03/11 11:36:39;;;;;;;8.13;7.18;;;14.70;1.00;;;;;;5016269;28;20040;-87
2022/03/11 11:39:07;;;;;;;8.80;7.15;;;15.70;1.00;;;;;;5016733;28;20477;-87
2022/03/11 11:41:34;;;;;;;8.18;7.30;;;17.40;1.00;;;;;;5016353;28;20017;-88
2022/03/11 11:44:05;;;;;;;8.57;6.80;;;17.80;1.00;;;;;;5032349;28;20022;-85
2022/03/11 11:46:36;;;;;;;8.23;6.97;;;17.40;1.00;;;;;;5032449;28;20036;-86
2022/03/11 11:49:16;;;;;;;8.38;7.50;;;17.90;1.00;;;;;;5011624;28;20125;-86
2022/03/11 11:51:41;;;;;;;8.10;7.40;;;17.70;1.00;;;;;;5030595;28;20112;-84
2022/03/11 11:54:11;;;;;;;8.18;7.38;;;17.50;1.00;;;;;;5031980;28;20121;-85
2022/03/11 11:56:45;;;;;;;8.57;7.43;;;17.70;1.00;;;;;;5032017;28;20022;-85
2022/03/11 11:59:24;;;;;;;8.15;7.35;;;17.60;1.00;;;;;;5016170;28;20079;-84
2022/03/11 12:01:53;;;;;;;8.50;7.70;;;17.40;1.00;;;;;;5033151;28;20041;-85
2022/03/11 12:04:29;;;;;;;9.60;7.95;;;16.90;1.00;;;;;;5031738;28;20021;-90
2022/03/11 12:06:55;;;;;;;8.80;7.55;;;17.90;1.00;;;;;;5032051;28;20539;-87
2022/03/11 12:09:42;;;;;;;7.90;7.20;;;18.90;1.00;;;;;;5032821;28;20006;-86
2022/03/11 12:12:09;;;;;;;8.43;7.50;;;19.60;1.00;;;;;;5032202;28;20378;-85
2022/03/11 12:14:57;;;;;;;12.30;8.60;;;20.20;1.00;;;;;;5031907;28;20432;-85
2022/03/11 12:17:43;;;;;;;9.40;8.40;;;20.30;1.00;;;;;;5030067;28;20021;-87
2022/03/11 12:20:33;;;;;;;10.38;8.38;;;21.50;1.00;;;;;;5018078;28;20083;-86
2022/03/11 12:23:00;;;;;;;10.43;9.32;;;22.40;1.00;;;;;;5016063;28;20462;-84
2022/03/11 12:26:02;;;;;;;9.02;8.23;;;21.60;99.90;;;;;;5027806;28;20037;-84
2022/03/11 12:28:33;;;;;;;8.68;7.82;;;21.70;99.90;;;;;;4950344;29;20043;-84
2022/03/11 12:31:01;;;;;;;10.55;9.45;;;22.70;99.90;;;;;;4952981;28;20141;-84
2022/03/11 12:33:39;;;;;;;9.77;8.88;;;23.10;99.90;;;;;;4952485;28;20043;-84
2022/03/11 12:36:09;;;;;;;10.40;9.40;;;21.70;99.90;;;;;;4952893;28;20023;-84
2022/03/11 12:38:39;;;;;;;10.23;9.32;;;22.20;99.90;;;;;;4952171;28;20031;-84
2022/03/11 12:41:10;;;;;;;9.75;8.85;;;21.50;99.90;;;;;;4952432;28;20097;-84
2022/03/11 12:43:37;;;;;;;10.45;9.35;;;21.40;99.90;;;;;;4951801;28;20035;-85
2022/03/11 12:46:04;;;;;;;10.75;9.65;;;21.50;99.90;;;;;;4951811;28;20071;-83
2022/03/11 12:48:34;;;;;;;11.40;10.25;;;22.20;99.90;;;;;;4952409;28;20030;-84
2022/03/11 12:51:00;;;;;;;10.75;9.75;;;23.10;99.90;;;;;;4952165;28;20137;-84
2022/03/11 12:53:26;;;;;;;11.65;10.48;;;22.70;99.90;;;;;;4945324;28;20088;-84